Ingleside — WDH6600 — position and weather

sailwx.info

Track history (hours):
 
Tides and Currents Weather Stations Pressure Air Temp Water Temp Dewpoint Dewpoint Depression Visibility Wind Speed Wind Dir Waves Ship Positions

Ingleside

Owner: Higman Barge Lines, Inc., Orange, TX. More information available from US FCC via Universal Licensing System and Coast Guard Vessel Documentation Center.

Last reported at 2018-Feb-20 17:05 UTC. Time now 2018-Feb-21 15:31 UTC.
Position N 27°50' W 097°09'.

Length 24 m; draft 3.5 m.

Type: Towing. MMSI: 367639680.

Date/timePositionNaut miles runAvg speedWind from/ knotsBaromVisibWave heightAir tempDewpointWater temp
2018-Feb-20 17:05N 27°50' W 097°09'2 8.5
2018-Feb-20 16:54N 27°50' W 097°07'3 7.9
2018-Feb-20 16:30N 27°51' W 097°03'2 1.2
2018-Feb-20 14:34N 27°53' W 097°03'0 0.0
2018-Feb-20 14:22N 27°53' W 097°03'0 0.0
2018-Feb-20 11:25N 27°53' W 097°03'0 0.0
2018-Feb-20 10:46N 27°53' W 097°03'0 0.0
2018-Feb-20 10:25N 27°53' W 097°03'0 0.0
2018-Feb-20 09:52N 27°53' W 097°03'0 0.0
2018-Feb-20 05:49N 27°53' W 097°03'0 0.0
2018-Feb-20 05:28N 27°53' W 097°03'0 0.0
2018-Feb-20 04:55N 27°53' W 097°03'0 0.0
2018-Feb-20 04:16N 27°53' W 097°03'0 0.0
2018-Feb-20 03:49N 27°53' W 097°03'0 0.0
2018-Feb-20 03:28N 27°53' W 097°03'0 0.0
2018-Feb-20 02:58N 27°53' W 097°03'0 0.0
2018-Feb-20 02:22N 27°53' W 097°03'0 0.0
2018-Feb-20 01:58N 27°53' W 097°03'0 0.0
2018-Feb-20 00:34N 27°53' W 097°03'0 0.0
2018-Feb-20 00:01N 27°53' W 097°03'0 0.0
2018-Feb-19 23:58N 27°53' W 097°03'0 0.0
2018-Feb-19 23:28N 27°53' W 097°03'0 0.0
2018-Feb-19 19:49N 27°53' W 097°03'3 5.0
2018-Feb-19 19:07N 27°57' W 097°04'1 5.5
2018-Feb-19 18:59N 27°57' W 097°03'3 5.4
2018-Feb-19 18:29N 27°60' W 097°02'3 6.0
2018-Feb-19 17:59N 28°02' W 096°60'3 6.0
2018-Feb-19 17:30N 28°04' W 096°58'3 6.5
2018-Feb-19 17:00N 28°07' W 096°56'3 6.0
2018-Feb-19 16:29N 28°09' W 096°53'3 5.9
2018-Feb-19 15:58N 28°11' W 096°51'5 5.9
2018-Feb-19 15:05N 28°15' W 096°46'2 6.6
2018-Feb-19 14:51N 28°16' W 096°45'6 1.4
2018-Feb-19 10:17N 28°19' W 096°39'0 0.0
2018-Feb-19 03:50N 28°20' W 096°39'0 0.0
2018-Feb-19 02:53N 28°20' W 096°39'0 0.0
2018-Feb-19 02:23N 28°20' W 096°39'0 0.0
2018-Feb-19 01:53N 28°20' W 096°39'0 0.5
2018-Feb-19 01:29N 28°20' W 096°39'2 3.8
2018-Feb-19 01:00N 28°21' W 096°37'3 4.9
2018-Feb-19 00:29N 28°22' W 096°35'3 5.6
2018-Feb-19 00:00N 28°23' W 096°32'3 5.8
2018-Feb-18 23:28N 28°25' W 096°29'3 5.8
2018-Feb-18 22:58N 28°26' W 096°26'2 2.5
2018-Feb-18 22:14N 28°27' W 096°24'0 0.0
2018-Feb-18 21:38N 28°27' W 096°24'0 0.0
2018-Feb-18 21:26N 28°27' W 096°24'25 2.1
2018-Feb-18 09:37N 28°40' W 095°60'0 0.0
2018-Feb-18 09:19N 28°40' W 095°60'0 0.0
2018-Feb-18 05:07N 28°40' W 095°60'0 0.0
2018-Feb-18 04:49N 28°40' W 095°60'0 0.0
2018-Feb-18 04:28N 28°40' W 095°60'0 0.0
2018-Feb-18 02:25N 28°40' W 095°60'30 1.2
2018-Feb-17 01:10N 28°52' W 095°28'13 0.7
2018-Feb-16 06:08N 28°59' W 095°16'0 0.0
2018-Feb-16 05:47N 28°59' W 095°16'0 0.0
2018-Feb-16 04:44N 28°59' W 095°16'0 0.0
2018-Feb-16 04:29N 28°59' W 095°16'0 0.0
2018-Feb-16 03:59N 28°59' W 095°16'0 0.0
2018-Feb-16 03:26N 28°59' W 095°16'0 0.0
2018-Feb-16 02:02N 28°59' W 095°16'0 0.0
2018-Feb-16 01:14N 28°59' W 095°16'0 0.0
2018-Feb-16 00:48N 28°59' W 095°16'1 3.3
2018-Feb-16 00:29N 28°60' W 095°15'1 2.8
2018-Feb-16 00:00N 29°01' W 095°14'2 4.5
2018-Feb-15 23:29N 29°03' W 095°13'3 4.9
2018-Feb-15 22:50N 29°06' W 095°12'2 5.0
2018-Feb-15 22:28N 29°07' W 095°11'23 1.7
2018-Feb-15 08:57N 29°21' W 094°49'0 0.0
2018-Feb-15 07:15N 29°21' W 094°49'0 0.0
2018-Feb-15 06:57N 29°21' W 094°49'0 0.0
2018-Feb-15 06:15N 29°21' W 094°49'0 0.0
2018-Feb-15 05:39N 29°21' W 094°49'0 0.0
2018-Feb-15 05:30N 29°21' W 094°49'0 0.0
2018-Feb-15 05:00N 29°21' W 094°49'0 0.0
2018-Feb-15 04:27N 29°21' W 094°49'0 0.0
2018-Feb-15 03:21N 29°21' W 094°49'0 0.0
2018-Feb-15 03:00N 29°21' W 094°49'0 0.0
2018-Feb-15 02:30N 29°21' W 094°49'0 0.0
2018-Feb-14 23:00N 29°21' W 094°49'3 3.0
2018-Feb-14 22:06N 29°19' W 094°51'4 5.9
2018-Feb-14 21:26N 29°22' W 094°48'5 6.5
2018-Feb-14 20:42N 29°26' W 094°50'2 8.4
2018-Feb-14 20:30N 29°28' W 094°51'4 8.6
2018-Feb-14 20:00N 29°32' W 094°54'3 7.0
2018-Feb-14 19:30N 29°35' W 094°56'4 6.8
2018-Feb-14 18:57N 29°38' W 094°58'4 7.5
2018-Feb-14 18:29N 29°41' W 094°59'4 5.4
2018-Feb-14 17:48N 29°44' W 095°02'2 4.9
2018-Feb-14 17:20N 29°45' W 095°04'3 6.0
2018-Feb-14 16:52N 29°44' W 095°07'  
Track history (hours):
 
Tides and Currents Weather Stations Pressure Air Temp Water Temp Dewpoint Dewpoint Depression Visibility Wind Speed Wind Dir Waves Ship Positions

Ingleside

Owner: Higman Barge Lines, Inc., Orange, TX. More information available from US FCC via Universal Licensing System and Coast Guard Vessel Documentation Center.

Last reported at 2018-Feb-20 17:05 UTC. Time now 2018-Feb-21 15:31 UTC.
Position N 27°50' W 097°09'.

Length 24 m; draft 3.5 m.

Type: Towing. MMSI: 367639680.

Date/timePositionNaut miles runAvg speedWind from/ knotsBaromVisibWave heightAir tempDewpointWater temp
2018-Feb-20 17:05N 27°50' W 097°09'2 8.5
2018-Feb-20 16:54N 27°50' W 097°07'3 7.9
2018-Feb-20 16:30N 27°51' W 097°03'2 1.2
2018-Feb-20 14:34N 27°53' W 097°03'0 0.0
2018-Feb-20 14:22N 27°53' W 097°03'0 0.0
2018-Feb-20 11:25N 27°53' W 097°03'0 0.0
2018-Feb-20 10:46N 27°53' W 097°03'0 0.0
2018-Feb-20 10:25N 27°53' W 097°03'0 0.0
2018-Feb-20 09:52N 27°53' W 097°03'0 0.0
2018-Feb-20 05:49N 27°53' W 097°03'0 0.0
2018-Feb-20 05:28N 27°53' W 097°03'0 0.0
2018-Feb-20 04:55N 27°53' W 097°03'0 0.0
2018-Feb-20 04:16N 27°53' W 097°03'0 0.0
2018-Feb-20 03:49N 27°53' W 097°03'0 0.0
2018-Feb-20 03:28N 27°53' W 097°03'0 0.0
2018-Feb-20 02:58N 27°53' W 097°03'0 0.0
2018-Feb-20 02:22N 27°53' W 097°03'0 0.0
2018-Feb-20 01:58N 27°53' W 097°03'0 0.0
2018-Feb-20 00:34N 27°53' W 097°03'0 0.0
2018-Feb-20 00:01N 27°53' W 097°03'0 0.0
2018-Feb-19 23:58N 27°53' W 097°03'0 0.0
2018-Feb-19 23:28N 27°53' W 097°03'0 0.0
2018-Feb-19 19:49N 27°53' W 097°03'3 5.0
2018-Feb-19 19:07N 27°57' W 097°04'1 5.5
2018-Feb-19 18:59N 27°57' W 097°03'3 5.4
2018-Feb-19 18:29N 27°60' W 097°02'3 6.0
2018-Feb-19 17:59N 28°02' W 096°60'3 6.0
2018-Feb-19 17:30N 28°04' W 096°58'3 6.5
2018-Feb-19 17:00N 28°07' W 096°56'3 6.0
2018-Feb-19 16:29N 28°09' W 096°53'3 5.9
2018-Feb-19 15:58N 28°11' W 096°51'5 5.9
2018-Feb-19 15:05N 28°15' W 096°46'2 6.6
2018-Feb-19 14:51N 28°16' W 096°45'6 1.4
2018-Feb-19 10:17N 28°19' W 096°39'0 0.0
2018-Feb-19 03:50N 28°20' W 096°39'0 0.0
2018-Feb-19 02:53N 28°20' W 096°39'0 0.0
2018-Feb-19 02:23N 28°20' W 096°39'0 0.0
2018-Feb-19 01:53N 28°20' W 096°39'0 0.5
2018-Feb-19 01:29N 28°20' W 096°39'2 3.8
2018-Feb-19 01:00N 28°21' W 096°37'3 4.9
2018-Feb-19 00:29N 28°22' W 096°35'3 5.6
2018-Feb-19 00:00N 28°23' W 096°32'3 5.8
2018-Feb-18 23:28N 28°25' W 096°29'3 5.8
2018-Feb-18 22:58N 28°26' W 096°26'2 2.5
2018-Feb-18 22:14N 28°27' W 096°24'0 0.0
2018-Feb-18 21:38N 28°27' W 096°24'0 0.0
2018-Feb-18 21:26N 28°27' W 096°24'25 2.1
2018-Feb-18 09:37N 28°40' W 095°60'0 0.0
2018-Feb-18 09:19N 28°40' W 095°60'0 0.0
2018-Feb-18 05:07N 28°40' W 095°60'0 0.0
2018-Feb-18 04:49N 28°40' W 095°60'0 0.0
2018-Feb-18 04:28N 28°40' W 095°60'0 0.0
2018-Feb-18 02:25N 28°40' W 095°60'30 1.2
2018-Feb-17 01:10N 28°52' W 095°28'13 0.7
2018-Feb-16 06:08N 28°59' W 095°16'0 0.0
2018-Feb-16 05:47N 28°59' W 095°16'0 0.0
2018-Feb-16 04:44N 28°59' W 095°16'0 0.0
2018-Feb-16 04:29N 28°59' W 095°16'0 0.0
2018-Feb-16 03:59N 28°59' W 095°16'0 0.0
2018-Feb-16 03:26N 28°59' W 095°16'0 0.0
2018-Feb-16 02:02N 28°59' W 095°16'0 0.0
2018-Feb-16 01:14N 28°59' W 095°16'0 0.0
2018-Feb-16 00:48N 28°59' W 095°16'1 3.3
2018-Feb-16 00:29N 28°60' W 095°15'1 2.8
2018-Feb-16 00:00N 29°01' W 095°14'2 4.5
2018-Feb-15 23:29N 29°03' W 095°13'3 4.9
2018-Feb-15 22:50N 29°06' W 095°12'2 5.0
2018-Feb-15 22:28N 29°07' W 095°11'23 1.7
2018-Feb-15 08:57N 29°21' W 094°49'0 0.0
2018-Feb-15 07:15N 29°21' W 094°49'0 0.0
2018-Feb-15 06:57N 29°21' W 094°49'0 0.0
2018-Feb-15 06:15N 29°21' W 094°49'0 0.0
2018-Feb-15 05:39N 29°21' W 094°49'0 0.0
2018-Feb-15 05:30N 29°21' W 094°49'0 0.0
2018-Feb-15 05:00N 29°21' W 094°49'0 0.0
2018-Feb-15 04:27N 29°21' W 094°49'0 0.0
2018-Feb-15 03:21N 29°21' W 094°49'0 0.0
2018-Feb-15 03:00N 29°21' W 094°49'0 0.0
2018-Feb-15 02:30N 29°21' W 094°49'0 0.0
2018-Feb-14 23:00N 29°21' W 094°49'3 3.0
2018-Feb-14 22:06N 29°19' W 094°51'4 5.9
2018-Feb-14 21:26N 29°22' W 094°48'5 6.5
2018-Feb-14 20:42N 29°26' W 094°50'2 8.4
2018-Feb-14 20:30N 29°28' W 094°51'4 8.6
2018-Feb-14 20:00N 29°32' W 094°54'3 7.0
2018-Feb-14 19:30N 29°35' W 094°56'4 6.8
2018-Feb-14 18:57N 29°38' W 094°58'4 7.5
2018-Feb-14 18:29N 29°41' W 094°59'4 5.4
2018-Feb-14 17:48N 29°44' W 095°02'2 4.9
2018-Feb-14 17:20N 29°45' W 095°04'3 6.0
2018-Feb-14 16:52N 29°44' W 095°07'  

Dump ship's entire track history